createdAt,value
2019-01-26T00:00:38.363Z,27.90
2019-01-26T00:03:06.507Z,28.73
2019-01-26T00:05:35.112Z,29.37
2019-01-26T00:08:03.858Z,30.17
2019-01-26T00:10:32.339Z,28.38
2019-01-26T00:13:00.761Z,30.15
2019-01-26T00:15:29.263Z,29.02
2019-01-26T00:17:58.127Z,29.63
2019-01-26T00:20:26.223Z,30.48
2019-01-26T00:22:54.316Z,29.00
2019-01-26T00:25:23.373Z,29.63
2019-01-26T00:27:51.857Z,30.15
2019-01-26T00:30:20.740Z,30.85
2019-01-26T00:32:48.964Z,31.35
2019-01-26T00:35:17.300Z,29.57
2019-01-26T00:37:45.781Z,30.82
2019-01-26T00:40:14.056Z,29.80
2019-01-26T00:42:42.672Z,30.10
2019-01-26T00:45:11.471Z,30.33
2019-01-26T00:47:40.216Z,30.48
2019-01-26T00:50:08.551Z,29.48
2019-01-26T00:52:36.631Z,29.20
2019-01-26T00:55:05.704Z,29.02
2019-01-26T00:57:34.557Z,29.12
2019-01-26T01:00:03.008Z,29.37
2019-01-26T01:02:32.032Z,29.25
2019-01-26T01:05:00.516Z,29.70
2019-01-26T01:07:29.195Z,29.70
2019-01-26T01:09:57.199Z,29.35
2019-01-26T01:12:25.824Z,30.43
2019-01-26T01:14:53.970Z,29.00
2019-01-26T01:17:22.723Z,28.80
2019-01-26T01:19:51.758Z,29.60
2019-01-26T01:22:19.854Z,29.20
2019-01-26T01:24:48.264Z,28.55
2019-01-26T01:27:16.412Z,27.52
2019-01-26T01:29:45.315Z,27.95
2019-01-26T01:32:13.431Z,29.70
2019-01-26T01:34:41.652Z,29.80
2019-01-26T01:37:09.720Z,27.95
2019-01-26T01:39:38.443Z,29.87
2019-01-26T01:42:06.546Z,27.37
2019-01-26T01:44:34.621Z,27.35
2019-01-26T01:47:02.835Z,27.25
2019-01-26T01:49:31.488Z,28.10
2019-01-26T01:51:59.627Z,27.52
2019-01-26T01:54:28.157Z,28.17
2019-01-26T01:56:56.794Z,26.73
2019-01-26T01:59:24.840Z,27.00
2019-01-26T02:01:52.844Z,27.60
2019-01-26T02:04:21.349Z,27.07
2019-01-26T02:06:49.480Z,27.60
2019-01-26T02:09:17.684Z,26.93
2019-01-26T02:11:46.895Z,27.35
2019-01-26T02:14:16.096Z,28.45
2019-01-26T02:16:50.082Z,26.50
2019-01-26T02:19:15.179Z,27.10
2019-01-26T02:21:43.311Z,27.58
2019-01-26T02:24:12.008Z,27.05
2019-01-26T02:26:40.194Z,26.60
2019-01-26T02:29:08.306Z,27.27
2019-01-26T02:31:36.857Z,27.60
2019-01-26T02:34:05.211Z,27.47
2019-01-26T02:36:33.755Z,27.93
2019-01-26T02:39:01.867Z,26.70
2019-01-26T02:41:32.252Z,27.50
2019-01-26T02:44:00.699Z,28.07
2019-01-26T02:46:28.845Z,27.60
2019-01-26T02:48:56.912Z,28.02
2019-01-26T02:51:25.471Z,27.90
2019-01-26T02:53:53.747Z,27.90
2019-01-26T02:56:21.851Z,28.05
2019-01-26T02:58:50.504Z,28.67
2019-01-26T03:01:18.979Z,29.05
2019-01-26T03:03:47.120Z,28.30
2019-01-26T03:06:15.920Z,29.10
2019-01-26T03:08:44.371Z,28.02
2019-01-26T03:11:13.171Z,29.45
2019-01-26T03:13:41.624Z,29.77
2019-01-26T03:16:09.819Z,29.65
2019-01-26T03:18:37.865Z,29.42
2019-01-26T03:21:06.333Z,28.85
2019-01-26T03:23:36.258Z,29.72
2019-01-26T03:26:04.525Z,27.40
2019-01-26T03:28:32.901Z,29.15
2019-01-26T03:31:03.396Z,27.27
2019-01-26T03:33:31.316Z,27.58
2019-01-26T03:35:59.648Z,26.85
2019-01-26T03:38:28.138Z,26.93
2019-01-26T03:40:56.252Z,27.73
2019-01-26T03:43:24.411Z,27.48
2019-01-26T03:45:53.332Z,26.12
2019-01-26T03:48:22.286Z,27.58
2019-01-26T03:50:50.795Z,27.58
2019-01-26T03:53:18.890Z,26.37
2019-01-26T03:55:46.983Z,24.30
2019-01-26T03:58:15.099Z,24.37
2019-01-26T04:00:43.123Z,23.55
2019-01-26T04:03:11.237Z,22.50
2019-01-26T04:05:39.699Z,22.02
2019-01-26T04:08:08.287Z,23.27
2019-01-26T04:10:37.462Z,22.80
2019-01-26T04:13:06.049Z,23.20
2019-01-26T04:15:35.218Z,23.62
2019-01-26T04:18:03.597Z,23.90
2019-01-26T04:20:32.310Z,23.40
2019-01-26T04:23:01.400Z,23.52
2019-01-26T04:25:29.543Z,24.57
2019-01-26T04:27:57.792Z,24.70
2019-01-26T04:30:26.666Z,24.35
2019-01-26T04:32:55.228Z,26.20
2019-01-26T04:35:23.382Z,25.62
2019-01-26T04:37:52.132Z,25.80
2019-01-26T04:40:21.923Z,26.87
2019-01-26T04:42:50.004Z,27.58
2019-01-26T04:45:22.655Z,27.20
2019-01-26T04:47:50.799Z,28.50
2019-01-26T04:50:19.635Z,27.05
2019-01-26T04:52:48.205Z,28.98
2019-01-26T04:55:18.581Z,29.27
2019-01-26T04:57:48.685Z,26.25
2019-01-26T05:00:20.920Z,29.07
2019-01-26T05:02:49.888Z,27.95
2019-01-26T05:05:18.032Z,28.50
2019-01-26T05:07:46.956Z,29.65
2019-01-26T05:10:16.236Z,29.32
2019-01-26T05:12:44.992Z,29.85
2019-01-26T05:15:13.946Z,29.10
2019-01-26T05:17:42.150Z,27.93
2019-01-26T05:20:12.905Z,28.87
2019-01-26T05:22:41.403Z,29.00
2019-01-26T05:25:09.834Z,28.23
2019-01-26T05:27:38.063Z,28.70
2019-01-26T05:30:08.059Z,28.38
2019-01-26T05:32:38.060Z,29.70
2019-01-26T05:35:06.623Z,27.20
2019-01-26T05:37:35.157Z,32.40
2019-01-26T05:40:03.236Z,30.75
2019-01-26T05:42:32.388Z,28.60
2019-01-26T05:45:01.174Z,26.87
2019-01-26T05:47:29.688Z,27.62
2019-01-26T05:49:58.157Z,27.45
2019-01-26T05:52:26.346Z,27.30
2019-01-26T05:54:55.073Z,27.75
2019-01-26T05:57:23.513Z,27.20
2019-01-26T05:59:51.960Z,26.48
2019-01-26T06:02:20.928Z,28.00
2019-01-26T06:04:49.259Z,27.32
2019-01-26T06:07:17.540Z,27.90
2019-01-26T06:09:45.999Z,26.50
2019-01-26T06:12:14.523Z,26.90
2019-01-26T06:14:44.176Z,29.87
2019-01-26T06:17:12.405Z,29.67
2019-01-26T06:19:40.579Z,30.85
2019-01-26T06:22:09.004Z,31.80
2019-01-26T06:24:37.692Z,34.37
2019-01-26T06:27:06.131Z,35.92
2019-01-26T06:29:34.860Z,35.75
2019-01-26T06:32:02.974Z,34.18
2019-01-26T06:34:31.311Z,33.20
2019-01-26T06:36:59.357Z,33.48
2019-01-26T06:39:28.008Z,32.30
2019-01-26T06:41:56.307Z,29.30
2019-01-26T06:44:25.303Z,40.52
2019-01-26T06:46:54.232Z,32.20
2019-01-26T06:49:22.903Z,33.67
2019-01-26T06:51:54.113Z,33.73
2019-01-26T06:54:23.024Z,34.40
2019-01-26T06:56:51.289Z,31.15
2019-01-26T06:59:19.440Z,29.35
2019-01-26T07:01:47.669Z,31.02
2019-01-26T07:04:24.201Z,36.45
2019-01-26T07:07:10.093Z,30.40
2019-01-26T07:09:38.179Z,32.48
2019-01-26T07:12:06.227Z,30.97
2019-01-26T07:14:34.879Z,33.60
2019-01-26T07:17:03.001Z,28.85
2019-01-26T07:19:31.471Z,31.45
2019-01-26T07:21:59.553Z,28.42
2019-01-26T07:24:27.725Z,26.12
2019-01-26T07:26:55.989Z,25.75
2019-01-26T07:29:24.662Z,25.20
2019-01-26T07:31:53.216Z,24.75
2019-01-26T07:34:21.243Z,26.70
2019-01-26T07:36:49.312Z,24.33
2019-01-26T07:39:17.748Z,28.60
2019-01-26T07:41:46.049Z,29.63
2019-01-26T07:44:14.561Z,26.37
2019-01-26T07:46:44.649Z,29.55
2019-01-26T07:49:12.790Z,28.23
2019-01-26T07:51:41.467Z,27.07
2019-01-26T07:54:11.995Z,28.40
2019-01-26T07:56:40.387Z,30.80
2019-01-26T07:59:09.395Z,31.90
2019-01-26T08:01:37.498Z,26.85
2019-01-26T08:04:05.632Z,25.92
2019-01-26T08:06:37.752Z,29.25
2019-01-26T08:09:07.823Z,26.33
2019-01-26T08:11:36.051Z,25.88
2019-01-26T08:14:04.788Z,27.93
2019-01-26T08:16:33.373Z,27.17
2019-01-26T08:19:01.957Z,26.73
2019-01-26T08:21:30.459Z,25.72
2019-01-26T08:23:58.580Z,24.60
2019-01-26T08:26:26.735Z,27.30
2019-01-26T08:28:54.828Z,26.62
2019-01-26T08:31:23.235Z,26.97
2019-01-26T08:33:52.593Z,29.12
2019-01-26T08:36:20.747Z,28.65
2019-01-26T08:38:48.905Z,28.27
2019-01-26T08:41:17.556Z,26.75
2019-01-26T08:43:45.843Z,32.35
2019-01-26T08:46:14.454Z,33.20
2019-01-26T08:48:43.039Z,29.57
2019-01-26T08:51:11.227Z,28.47
2019-01-26T08:53:39.422Z,27.73
2019-01-26T08:56:08.106Z,29.92
2019-01-26T08:58:36.264Z,31.85
2019-01-26T09:01:04.805Z,27.20
2019-01-26T09:03:51.881Z,27.65
2019-01-26T09:06:27.604Z,25.50
2019-01-26T09:08:55.775Z,25.90
2019-01-26T09:11:23.855Z,25.65
2019-01-26T09:13:52.300Z,23.65
2019-01-26T09:16:20.418Z,22.85
2019-01-26T09:18:48.970Z,23.20
2019-01-26T09:21:17.441Z,20.17
2019-01-26T09:23:45.938Z,20.45
2019-01-26T09:26:14.491Z,20.05
2019-01-26T09:28:43.779Z,18.85
2019-01-26T09:31:12.497Z,18.23
2019-01-26T09:33:40.619Z,17.85
2019-01-26T09:36:09.157Z,17.95
2019-01-26T09:38:37.615Z,17.55
2019-01-26T09:41:05.847Z,17.20
2019-01-26T09:43:34.638Z,17.60
2019-01-26T09:46:02.972Z,15.65
2019-01-26T09:48:31.644Z,17.40
2019-01-26T09:50:59.794Z,17.10
2019-01-26T09:53:28.213Z,17.42
2019-01-26T09:55:56.994Z,17.87
2019-01-26T09:58:25.581Z,18.07
2019-01-26T10:00:53.801Z,16.82
2019-01-26T10:03:22.712Z,16.50
2019-01-26T10:05:50.972Z,17.98
2019-01-26T10:08:19.061Z,16.15
2019-01-26T10:10:47.992Z,16.20
2019-01-26T10:13:17.920Z,14.00
2019-01-26T10:15:46.246Z,14.10
2019-01-26T10:18:15.492Z,13.80
2019-01-26T10:20:43.892Z,15.63
2019-01-26T10:23:12.628Z,15.08
2019-01-26T10:25:41.140Z,13.70
2019-01-26T10:28:09.301Z,14.80
2019-01-26T10:30:51.027Z,14.45
2019-01-26T10:33:19.219Z,14.27
2019-01-26T10:36:06.703Z,16.37
2019-01-26T10:38:38.097Z,13.93
2019-01-26T10:41:37.421Z,14.10
2019-01-26T10:44:05.832Z,13.50
2019-01-26T10:46:33.909Z,14.55
2019-01-26T10:49:02.057Z,14.10
2019-01-26T10:51:30.676Z,14.23
2019-01-26T10:53:58.809Z,13.25
2019-01-26T10:56:27.327Z,14.35
2019-01-26T10:58:56.326Z,13.60
2019-01-26T11:01:24.667Z,13.10
2019-01-26T11:03:52.763Z,12.95
2019-01-26T11:06:21.210Z,12.47
2019-01-26T11:08:49.797Z,12.33
2019-01-26T11:11:18.607Z,13.05
2019-01-26T11:13:47.129Z,11.73
2019-01-26T11:16:15.327Z,11.73
2019-01-26T11:18:43.404Z,11.30
2019-01-26T11:21:12.147Z,11.93
2019-01-26T11:23:40.915Z,10.72
2019-01-26T11:26:09.824Z,11.15
2019-01-26T11:28:38.051Z,10.80
2019-01-26T11:31:06.644Z,10.72
2019-01-26T11:33:34.849Z,10.73
2019-01-26T11:36:03.080Z,9.50
2019-01-26T11:38:32.093Z,9.38
2019-01-26T11:41:00.365Z,8.58
2019-01-26T11:43:28.909Z,8.60
2019-01-26T11:46:31.837Z,7.60
2019-01-26T11:49:00.762Z,8.10
2019-01-26T11:51:54.301Z,7.03
2019-01-26T11:54:22.380Z,7.10
2019-01-26T11:56:56.748Z,7.40
2019-01-26T11:59:25.257Z,7.30
2019-01-26T12:02:30.600Z,7.28
2019-01-26T12:05:06.660Z,6.70
2019-01-26T12:07:36.068Z,7.33
2019-01-26T12:10:05.015Z,6.78
2019-01-26T12:12:33.477Z,6.65
2019-01-26T12:15:01.799Z,7.00
2019-01-26T12:17:30.136Z,6.70
2019-01-26T12:19:58.163Z,6.80
2019-01-26T12:22:27.921Z,7.08
2019-01-26T12:24:56.420Z,7.60
2019-01-26T12:27:25.105Z,6.77
2019-01-26T12:29:53.173Z,6.70
2019-01-26T12:32:21.600Z,7.10
2019-01-26T12:34:50.139Z,13.50
2019-01-26T12:37:19.364Z,7.12
2019-01-26T12:39:47.904Z,6.75
2019-01-26T12:42:16.036Z,7.00
2019-01-26T12:44:44.784Z,6.80
2019-01-26T12:47:17.054Z,7.30
2019-01-26T12:49:43.836Z,10.40
2019-01-26T12:52:12.270Z,7.90
2019-01-26T12:54:40.779Z,7.80
2019-01-26T12:57:09.244Z,8.23
2019-01-26T12:59:37.349Z,7.60
2019-01-26T13:02:06.262Z,7.65
2019-01-26T13:04:34.956Z,7.30
2019-01-26T13:07:03.092Z,7.05
2019-01-26T13:09:31.199Z,7.20
2019-01-26T13:11:59.632Z,7.20
2019-01-26T13:14:27.769Z,6.75
2019-01-26T13:16:55.905Z,7.10
2019-01-26T13:19:24.405Z,6.50
2019-01-26T13:21:52.575Z,6.80
2019-01-26T13:24:20.985Z,7.40
2019-01-26T13:26:49.741Z,7.72
2019-01-26T13:29:19.119Z,7.67
2019-01-26T13:31:47.543Z,7.30
2019-01-26T13:34:15.743Z,8.20
2019-01-26T13:36:46.012Z,8.33
2019-01-26T13:39:16.287Z,7.92
2019-01-26T13:41:44.416Z,7.85
2019-01-26T13:44:13.196Z,8.03
2019-01-26T13:46:41.636Z,8.58
2019-01-26T13:49:10.258Z,9.40
2019-01-26T13:51:38.766Z,9.10
2019-01-26T13:54:06.804Z,8.43
2019-01-26T13:56:35.971Z,8.50
2019-01-26T13:59:04.079Z,11.18
2019-01-26T14:01:32.592Z,9.70
2019-01-26T14:04:01.257Z,7.90
2019-01-26T14:06:31.114Z,7.67
2019-01-26T14:09:00.677Z,7.65
2019-01-26T14:11:29.225Z,7.50
2019-01-26T14:13:58.083Z,7.50
2019-01-26T14:16:26.081Z,7.72
2019-01-26T14:18:54.564Z,8.90
2019-01-26T14:21:22.763Z,6.97
2019-01-26T14:23:50.933Z,6.67
2019-01-26T14:26:19.290Z,6.70
2019-01-26T14:28:47.730Z,6.30
2019-01-26T14:31:15.896Z,6.70
2019-01-26T14:33:45.860Z,6.55
2019-01-26T14:36:14.605Z,6.90
2019-01-26T14:38:42.753Z,6.12
2019-01-26T14:41:11.455Z,6.50
2019-01-26T14:43:39.728Z,6.60
2019-01-26T14:46:08.417Z,7.10
2019-01-26T14:48:36.997Z,7.00
2019-01-26T14:51:05.267Z,7.10
2019-01-26T14:53:33.864Z,7.20
2019-01-26T14:56:03.133Z,7.30
2019-01-26T14:58:33.280Z,7.87
2019-01-26T15:01:01.864Z,6.90
2019-01-26T15:03:30.303Z,7.92
2019-01-26T15:05:58.806Z,7.47
2019-01-26T15:08:27.023Z,7.40
2019-01-26T15:10:55.651Z,8.10
2019-01-26T15:13:24.030Z,8.15
2019-01-26T15:15:52.617Z,7.80
2019-01-26T15:18:21.548Z,7.85
2019-01-26T15:20:50.436Z,8.25
2019-01-26T15:23:18.532Z,8.05
2019-01-26T15:25:47.165Z,8.38
2019-01-26T15:28:15.393Z,8.90
2019-01-26T15:30:43.940Z,9.15
2019-01-26T15:33:12.558Z,8.30
2019-01-26T15:35:41.025Z,8.25
2019-01-26T15:38:09.961Z,7.65
2019-01-26T15:40:38.290Z,7.62
2019-01-26T15:43:06.847Z,7.75
2019-01-26T15:45:37.271Z,8.83
2019-01-26T15:48:06.479Z,7.60
2019-01-26T15:50:34.777Z,7.45
2019-01-26T15:53:03.342Z,7.37
2019-01-26T15:55:31.891Z,7.00
2019-01-26T15:58:00.653Z,7.33
2019-01-26T16:00:29.829Z,7.47
2019-01-26T16:02:57.953Z,7.10
2019-01-26T16:05:26.081Z,6.25
2019-01-26T16:07:54.341Z,6.00
2019-01-26T16:10:22.924Z,6.35
2019-01-26T16:12:51.531Z,6.20
2019-01-26T16:15:20.804Z,6.08
2019-01-26T16:17:49.584Z,5.87
2019-01-26T16:20:20.424Z,5.40
2019-01-26T16:22:48.805Z,5.40
2019-01-26T16:25:17.681Z,5.60
2019-01-26T16:27:46.676Z,5.80
2019-01-26T16:30:16.686Z,5.70
2019-01-26T16:32:45.200Z,6.20
2019-01-26T16:35:13.955Z,6.62
2019-01-26T16:37:42.072Z,6.00
2019-01-26T16:40:12.117Z,6.28
2019-01-26T16:42:40.759Z,6.40
2019-01-26T16:45:11.137Z,6.78
2019-01-26T16:47:39.623Z,6.10
2019-01-26T16:50:09.399Z,6.33
2019-01-26T16:52:37.942Z,6.50
2019-01-26T16:55:06.664Z,6.20
2019-01-26T16:57:34.893Z,6.33
2019-01-26T17:00:03.033Z,7.20
2019-01-26T17:02:31.451Z,6.53
2019-01-26T17:05:00.186Z,7.25
2019-01-26T17:07:28.219Z,7.30
2019-01-26T17:09:57.004Z,7.40
2019-01-26T17:12:25.232Z,6.58
2019-01-26T17:14:53.673Z,7.00
2019-01-26T17:17:22.553Z,7.00
2019-01-26T17:19:52.981Z,7.50
2019-01-26T17:22:21.574Z,7.08
2019-01-26T17:24:49.726Z,7.00
2019-01-26T17:27:18.624Z,7.20
2019-01-26T17:29:46.969Z,7.00
2019-01-26T17:32:15.598Z,7.58
2019-01-26T17:34:43.731Z,7.80
2019-01-26T17:37:11.959Z,7.72
2019-01-26T17:39:40.812Z,7.75
2019-01-26T17:42:10.432Z,8.63
2019-01-26T17:44:38.653Z,8.80
2019-01-26T17:47:07.178Z,8.08
2019-01-26T17:49:35.265Z,7.70
2019-01-26T17:52:03.339Z,7.33
2019-01-26T17:54:31.960Z,7.60
2019-01-26T17:57:00.024Z,7.70
2019-01-26T17:59:28.579Z,7.20
2019-01-26T18:01:56.808Z,6.45
2019-01-26T18:04:24.987Z,6.75
2019-01-26T18:06:53.472Z,7.20
2019-01-26T18:09:23.481Z,6.90
2019-01-26T18:11:52.011Z,7.35
2019-01-26T18:14:20.216Z,6.93
2019-01-26T18:16:48.667Z,6.75
2019-01-26T18:19:17.052Z,6.80
2019-01-26T18:21:45.689Z,6.40
2019-01-26T18:24:14.068Z,6.35
2019-01-26T18:26:42.498Z,6.83
2019-01-26T18:29:11.066Z,6.33
2019-01-26T18:31:41.377Z,6.43
2019-01-26T18:34:09.915Z,6.90
2019-01-26T18:36:38.355Z,6.70
2019-01-26T18:39:08.730Z,6.70
2019-01-26T18:41:37.010Z,6.55
2019-01-26T18:44:05.555Z,6.37
2019-01-26T18:46:34.150Z,7.30
2019-01-26T18:49:02.261Z,7.00
2019-01-26T18:51:31.408Z,7.17
2019-01-26T18:53:59.539Z,6.90
2019-01-26T18:56:28.008Z,7.22
2019-01-26T18:58:56.182Z,7.23
2019-01-26T19:01:24.271Z,6.42
2019-01-26T19:04:00.987Z,6.50
2019-01-26T19:06:30.193Z,6.08
2019-01-26T19:08:58.324Z,6.00
2019-01-26T19:11:28.172Z,5.20
2019-01-26T19:13:56.340Z,5.05
2019-01-26T19:16:24.989Z,4.67
2019-01-26T19:18:53.144Z,4.33
2019-01-26T19:21:21.990Z,3.70
2019-01-26T19:23:50.153Z,3.70
2019-01-26T19:26:18.739Z,3.70
2019-01-26T19:28:46.884Z,3.62
2019-01-26T19:31:17.033Z,3.57
2019-01-26T19:33:47.126Z,3.60
2019-01-26T19:36:15.141Z,3.52
2019-01-26T19:38:44.091Z,2.90
2019-01-26T19:41:12.508Z,3.17
2019-01-26T19:43:41.312Z,2.85
2019-01-26T19:46:09.674Z,3.08
2019-01-26T19:48:37.882Z,2.75
2019-01-26T19:51:09.859Z,2.83
2019-01-26T19:53:36.078Z,2.80
2019-01-26T19:56:04.569Z,2.72
2019-01-26T19:58:33.012Z,2.85
2019-01-26T20:01:01.733Z,2.70
2019-01-26T20:03:31.520Z,2.90
2019-01-26T20:05:59.872Z,2.65
2019-01-26T20:08:28.471Z,2.83
2019-01-26T20:10:57.812Z,3.00
2019-01-26T20:13:25.988Z,3.00
2019-01-26T20:15:56.274Z,3.08
2019-01-26T20:18:25.270Z,2.83
2019-01-26T20:20:53.419Z,2.90
2019-01-26T20:23:21.964Z,3.30
2019-01-26T20:25:50.172Z,3.10
2019-01-26T20:28:18.294Z,3.35
2019-01-26T20:30:46.604Z,3.92
2019-01-26T20:33:15.440Z,4.10
2019-01-26T20:35:44.075Z,4.50
2019-01-26T20:38:12.173Z,4.70
2019-01-26T20:40:40.413Z,4.90
2019-01-26T20:43:08.574Z,5.20
2019-01-26T20:45:37.127Z,5.00
2019-01-26T20:48:05.701Z,5.83
2019-01-26T20:50:34.097Z,6.08
2019-01-26T20:53:02.884Z,6.40
2019-01-26T20:55:31.544Z,7.20
2019-01-26T20:57:59.698Z,7.73
2019-01-26T21:00:29.265Z,8.10
2019-01-26T21:02:57.467Z,7.58
2019-01-26T21:05:25.899Z,7.27
2019-01-26T21:07:54.244Z,9.10
2019-01-26T21:10:23.792Z,8.50
2019-01-26T21:12:52.375Z,10.05
2019-01-26T21:15:21.037Z,8.33
2019-01-26T21:17:49.293Z,10.68
2019-01-26T21:20:17.880Z,11.18
2019-01-26T21:22:46.416Z,12.50
2019-01-26T21:25:15.197Z,12.40
2019-01-26T21:27:43.676Z,12.30
2019-01-26T21:30:16.852Z,12.45
2019-01-26T21:32:44.897Z,12.00
2019-01-26T21:35:13.404Z,12.70
2019-01-26T21:37:41.471Z,13.30
2019-01-26T21:40:11.965Z,13.20
2019-01-26T21:42:40.713Z,13.60
2019-01-26T21:45:09.330Z,13.40
2019-01-26T21:47:38.192Z,13.85
2019-01-26T21:50:08.956Z,13.55
2019-01-26T21:52:41.129Z,14.30
2019-01-26T21:55:08.031Z,14.18
2019-01-26T21:57:36.200Z,14.90
2019-01-26T22:00:06.235Z,16.52
2019-01-26T22:02:34.691Z,15.70
2019-01-26T22:05:03.131Z,15.30
2019-01-26T22:07:31.408Z,15.53
2019-01-26T22:09:59.875Z,16.37
2019-01-26T22:12:28.735Z,15.90
2019-01-26T22:14:56.919Z,16.75
2019-01-26T22:17:25.048Z,16.60
2019-01-26T22:19:53.691Z,15.43
2019-01-26T22:22:22.169Z,16.60
2019-01-26T22:24:52.173Z,17.30
2019-01-26T22:27:20.271Z,17.45
2019-01-26T22:29:48.412Z,18.25
2019-01-26T22:32:16.563Z,18.00
2019-01-26T22:34:44.951Z,17.82
2019-01-26T22:37:13.657Z,18.02
2019-01-26T22:39:42.180Z,19.40
2019-01-26T22:42:10.915Z,19.45
2019-01-26T22:44:39.557Z,18.07
2019-01-26T22:47:07.716Z,19.00
2019-01-26T22:49:35.794Z,18.63
2019-01-26T22:52:04.558Z,20.27
2019-01-26T22:54:33.217Z,19.87
2019-01-26T22:57:02.996Z,19.70
2019-01-26T22:59:31.485Z,20.75
2019-01-26T23:01:59.603Z,19.87
2019-01-26T23:04:49.937Z,19.52
2019-01-26T23:07:35.984Z,20.37
2019-01-26T23:10:22.021Z,20.50
2019-01-26T23:13:15.398Z,21.37
2019-01-26T23:16:02.318Z,22.00
2019-01-26T23:18:48.867Z,21.90
2019-01-26T23:21:26.775Z,21.57
2019-01-26T23:24:18.237Z,22.50
2019-01-26T23:27:08.031Z,22.17
2019-01-26T23:29:45.317Z,23.45
2019-01-26T23:32:13.516Z,22.60
2019-01-26T23:34:41.744Z,23.32
2019-01-26T23:37:10.033Z,24.30
2019-01-26T23:39:38.307Z,23.30
2019-01-26T23:42:06.675Z,23.57
2019-01-26T23:44:35.388Z,23.00
2019-01-26T23:47:04.016Z,22.93
2019-01-26T23:49:32.129Z,23.07
2019-01-26T23:52:00.396Z,22.30
2019-01-26T23:54:28.604Z,24.23
2019-01-26T23:56:56.962Z,23.27
2019-01-26T23:59:25.458Z,23.47
